Flight Track Log - Related Links

Times and Time Zones

All times are in EDT time to prevent confusion due to time zone crossing. See the N20EW flight status page for this flight to view local times or setup timezone preferences in your user account.

Time Position Orientation Groundspeed Altitude Reporting Facility
EDT Latitude Longitude Course Direction KTS MPH feet Rate Location/Type
Sun 03:41:36 PM 28.4333 -81.3333 286° West 134 154 700  Level Orlando TRACON
Sun 03:43:00 PM 28.4500 -81.4000 286° West 219 252 2,700 1,375 Climbing Orlando TRACON
Sun 03:44:00 PM 28.4500 -81.4667 270° West 196 226 4,000 650 Climbing Orlando TRACON
Sun 03:45:00 PM 28.4333 -81.5333 254° West 238 274 4,000  Level Orlando TRACON
Sun 03:46:00 PM 28.4167 -81.6167 257° West 242 278 4,000 220 Level Orlando TRACON
Sun 03:47:44 PM 28.4000 -81.7500 262° West 228 262 4,600 329 Climbing Tampa TRACON
Sun 03:48:44 PM 28.3833 -81.8000 249° West 209 241 4,900 158 Climbing Tampa TRACON
Sun 03:49:38 PM 28.3667 -81.8500 249° West 212 244 4,900  Level Tampa TRACON
Sun 03:50:50 PM 28.3333 -81.9333 246° West 237 273 4,900 -189 Level Tampa TRACON
Sun 03:51:45 PM 28.2833 -82.0000 230° Southwest 257 296 4,500 -500 Descending Tampa TRACON
Sun 03:52:50 PM 28.2333 -82.0500 221° Southwest 257 296 3,900 -300 Descending Tampa TRACON
Sun 03:53:45 PM 28.1833 -82.1000 221° Southwest 244 281 3,900  Level Tampa TRACON
Sun 03:54:39 PM 28.1333 -82.1333 210° Southwest 238 274 3,900  Level Tampa TRACON
Sun 03:55:39 PM 28.0833 -82.1833 221° Southwest 237 273 3,900  Level Tampa TRACON
Sun 03:56:39 PM 28.0333 -82.2333 221° Southwest 234 269 3,900  Level Tampa TRACON
Sun 03:57:45 PM 27.9667 -82.2833 214° Southwest 236 272 3,900  Level Tampa TRACON
Sun 03:58:39 PM 27.9333 -82.3333 233° Southwest 234 269 3,900  Level Tampa TRACON
Sun 03:59:33 PM 27.9500 -82.3833 266° West 230 265 3,900  Level Tampa TRACON
Sun 04:00:00 PM 27.9270 -82.4306 266° West  Level Estimated
Sun 04:00:45 PM 27.9667 -82.4833 281° West 241 277 3,900  Level Tampa TRACON
Sun 04:01:45 PM 27.9667 -82.5500 270° West 228 262 3,900  Level Tampa TRACON
Sun 04:02:45 PM 27.9833 -82.6167 286° West 219 252 3,900 -684 Level Tampa TRACON
Sun 04:03:39 PM 27.9833 -82.6833 270° West 223 257 2,600 -1,050 Descending Tampa TRACON
Sun 04:04:45 PM 27.9667 -82.7500 254° West 197 227 1,800 -694 Descending Tampa TRACON
Sun 04:05:40 PM 27.9333 -82.7500 180° South 166 191 1,200 -783 Descending Tampa TRACON
Sun 04:06:40 PM 27.9167 -82.7167 119° Southeast 138 159 300 -900 Descending Tampa TRACON
Sun 04:08:00 PM 27.9000 -82.6833 North  Level FlightAware Approximate
Sun 04:15:00 PM 27.9100 -82.6874 North  Level Estimated
Sun 04:16:00 PM 27.9100 -82.6874 North  Level Estimated

Login

Don't have an account? Register now (free) for customized features, flight alerts, and more!